Time;durP1;ratioP1;P1;durP2;ratioP2;P2;SDS_P1;SDS_P2;PMS_P1;PMS_P2;Temp;Humidity;BMP_temperature;BMP_pressure;BME280_temperature;BME280_humidity;BME280_pressure;Samples;Min_cycle;Max_cycle;Signal;HPM_P1;HPM_P2
2023/06/01 00:01:41;;;;;;;5.35;2.50;;;;;;;;;;5026893;28;20180;-51
2023/06/01 00:04:07;;;;;;;3.22;2.38;;;;;;;;;;5015198;28;20196;-51
2023/06/01 00:06:34;;;;;;;3.78;2.20;;;;;;;;;;5029489;28;20271;-51
2023/06/01 00:09:00;;;;;;;2.78;2.30;;;;;;;;;;5014656;28;20271;-51
2023/06/01 00:11:26;;;;;;;3.20;2.20;;;;;;;;;;5012420;28;20764;-51
2023/06/01 00:13:52;;;;;;;3.33;2.60;;;;;;;;;;5014338;28;20181;-51
2023/06/01 00:16:18;;;;;;;4.20;2.40;;;;;;;;;;5007440;28;20225;-50
2023/06/01 00:18:44;;;;;;;4.93;2.35;;;;;;;;;;5014120;28;20940;-51
2023/06/01 00:21:11;;;;;;;4.75;2.05;;;;;;;;;;5004390;28;20196;-50
2023/06/01 00:23:40;;;;;;;3.60;2.20;;;;;;;;;;5014709;28;20181;-51
2023/06/01 00:26:06;;;;;;;3.17;2.10;;;;;;;;;;5014297;28;20176;-50
2023/06/01 00:28:32;;;;;;;3.30;2.20;;;;;;;;;;5027500;28;20223;-50
2023/06/01 00:30:58;;;;;;;2.85;2.30;;;;;;;;;;5017047;28;20279;-50
2023/06/01 00:33:24;;;;;;;3.00;1.95;;;;;;;;;;5017850;28;20175;-51
2023/06/01 00:35:50;;;;;;;2.97;2.30;;;;;;;;;;5018102;28;20262;-51
2023/06/01 00:38:16;;;;;;;2.75;2.30;;;;;;;;;;5017938;28;20475;-51
2023/06/01 00:40:45;;;;;;;3.50;2.33;;;;;;;;;;5017163;28;20175;-51
2023/06/01 00:43:11;;;;;;;2.42;2.13;;;;;;;;;;5017777;28;20207;-51
2023/06/01 00:45:37;;;;;;;3.58;2.22;;;;;;;;;;5017794;28;20177;-50
2023/06/01 00:48:03;;;;;;;2.63;2.10;;;;;;;;;;5017663;28;20173;-52
2023/06/01 00:50:29;;;;;;;3.25;2.25;;;;;;;;;;5017549;28;20173;-51
2023/06/01 00:52:56;;;;;;;4.35;2.35;;;;;;;;;;5017545;28;20172;-53
2023/06/01 00:55:22;;;;;;;4.85;2.20;;;;;;;;;;5017612;28;20246;-50
2023/06/01 00:57:49;;;;;;;2.63;2.10;;;;;;;;;;5017634;28;20218;-53
2023/06/01 01:00:15;;;;;;;2.60;2.10;;;;;;;;;;5017256;28;20165;-51
2023/06/01 01:02:41;;;;;;;2.47;1.90;;;;;;;;;;5017347;28;20179;-51
2023/06/01 01:05:09;;;;;;;3.65;2.22;;;;;;;;;;5017399;28;20432;-50
2023/06/01 01:07:41;;;;;;;3.55;2.28;;;;;;;;;;5017504;28;20230;-50
2023/06/01 01:10:20;;;;;;;3.10;2.17;;;;;;;;;;5017158;28;20177;-50
2023/06/01 01:12:58;;;;;;;2.30;2.10;;;;;;;;;;5017022;28;20586;-51
2023/06/01 01:15:26;;;;;;;2.50;1.85;;;;;;;;;;5017126;28;20265;-51
2023/06/01 01:18:01;;;;;;;2.17;1.98;;;;;;;;;;5017192;28;20176;-52
2023/06/01 01:20:29;;;;;;;3.40;2.30;;;;;;;;;;5017075;28;20201;-51
2023/06/01 01:23:13;;;;;;;4.13;1.90;;;;;;;;;;5016996;28;20243;-51
2023/06/01 01:25:53;;;;;;;2.40;2.03;;;;;;;;;;5017069;28;20176;-51
2023/06/01 01:28:24;;;;;;;4.40;2.15;;;;;;;;;;5017194;28;20169;-51
2023/06/01 01:30:51;;;;;;;3.28;2.00;;;;;;;;;;5008517;28;20263;-50
2023/06/01 01:33:18;;;;;;;3.72;2.22;;;;;;;;;;5012494;28;20200;-50
2023/06/01 01:35:44;;;;;;;2.30;1.83;;;;;;;;;;5012237;28;20223;-51
2023/06/01 01:38:10;;;;;;;2.28;1.95;;;;;;;;;;5011678;28;20184;-51
2023/06/01 01:40:36;;;;;;;5.10;2.08;;;;;;;;;;5027734;28;20259;-51
2023/06/01 01:43:02;;;;;;;3.17;1.98;;;;;;;;;;5008764;28;20188;-51
2023/06/01 01:45:28;;;;;;;2.53;2.10;;;;;;;;;;5002147;28;20271;-51
2023/06/01 01:48:06;;;;;;;3.78;2.10;;;;;;;;;;5004996;28;20172;-51
2023/06/01 01:50:36;;;;;;;2.55;1.75;;;;;;;;;;5013656;28;20590;-50
2023/06/01 01:53:03;;;;;;;2.75;1.88;;;;;;;;;;5012093;28;20548;-50
2023/06/01 01:55:30;;;;;;;2.15;1.95;;;;;;;;;;5011303;28;20208;-50
2023/06/01 01:57:57;;;;;;;2.58;2.20;;;;;;;;;;5013112;28;20221;-50
2023/06/01 02:00:23;;;;;;;2.55;2.20;;;;;;;;;;5003210;28;20231;-51
2023/06/01 02:02:49;;;;;;;2.35;2.00;;;;;;;;;;5011934;28;20361;-50
2023/06/01 02:05:15;;;;;;;2.33;2.13;;;;;;;;;;5012918;28;20441;-51
2023/06/01 02:07:41;;;;;;;2.72;2.28;;;;;;;;;;5012864;28;20188;-51
2023/06/01 02:10:07;;;;;;;3.67;1.95;;;;;;;;;;5002221;28;20185;-50
2023/06/01 02:12:33;;;;;;;4.32;2.05;;;;;;;;;;5013433;28;20207;-51
2023/06/01 02:14:59;;;;;;;3.08;2.03;;;;;;;;;;5013796;28;20255;-51
2023/06/01 02:17:26;;;;;;;3.35;2.33;;;;;;;;;;5012714;28;20181;-51
2023/06/01 02:19:52;;;;;;;3.05;2.28;;;;;;;;;;5018582;28;20188;-50
2023/06/01 02:22:18;;;;;;;3.05;2.08;;;;;;;;;;5012742;28;21022;-51
2023/06/01 02:24:45;;;;;;;3.10;2.30;;;;;;;;;;5013731;28;20184;-50
2023/06/01 02:27:11;;;;;;;3.70;2.13;;;;;;;;;;5012640;28;20176;-51
2023/06/01 02:29:37;;;;;;;2.05;1.83;;;;;;;;;;5006155;28;20208;-50
2023/06/01 02:32:03;;;;;;;2.08;1.88;;;;;;;;;;5011151;28;20560;-52
2023/06/01 02:34:28;;;;;;;5.70;1.95;;;;;;;;;;5005860;28;20303;-51
2023/06/01 02:36:55;;;;;;;3.58;1.90;;;;;;;;;;5005108;28;20176;-50
2023/06/01 02:39:21;;;;;;;2.60;1.83;;;;;;;;;;5013300;28;20199;-51
2023/06/01 02:41:47;;;;;;;2.92;2.10;;;;;;;;;;5013100;28;20177;-51
2023/06/01 02:44:13;;;;;;;1.98;1.70;;;;;;;;;;5011066;28;20223;-52
2023/06/01 02:46:39;;;;;;;2.55;2.00;;;;;;;;;;5008629;28;20188;-52
2023/06/01 02:49:05;;;;;;;2.15;1.80;;;;;;;;;;5015555;28;20743;-52
2023/06/01 02:51:31;;;;;;;2.13;1.92;;;;;;;;;;5014653;28;20196;-51
2023/06/01 02:53:57;;;;;;;3.55;1.80;;;;;;;;;;5013074;28;20181;-51
2023/06/01 02:56:23;;;;;;;2.42;1.80;;;;;;;;;;5013083;28;20252;-51
2023/06/01 02:58:50;;;;;;;2.53;1.92;;;;;;;;;;5016966;28;20180;-52
2023/06/01 03:01:16;;;;;;;2.08;1.85;;;;;;;;;;5017300;28;20178;-51
2023/06/01 03:03:42;;;;;;;3.13;2.10;;;;;;;;;;5011233;28;20185;-51
2023/06/01 03:06:08;;;;;;;2.58;2.00;;;;;;;;;;5010265;28;20218;-51
2023/06/01 03:08:35;;;;;;;3.15;2.10;;;;;;;;;;5018423;28;20557;-51
2023/06/01 03:11:01;;;;;;;4.50;2.08;;;;;;;;;;5011391;28;20181;-51
2023/06/01 03:13:26;;;;;;;5.15;2.05;;;;;;;;;;5015417;28;20191;-51
2023/06/01 03:15:52;;;;;;;2.38;1.83;;;;;;;;;;5016057;28;20531;-51
2023/06/01 03:18:18;;;;;;;2.13;1.92;;;;;;;;;;5013985;28;20188;-51
2023/06/01 03:20:47;;;;;;;3.55;2.15;;;;;;;;;;5010059;28;20292;-52
2023/06/01 03:23:13;;;;;;;3.55;2.15;;;;;;;;;;5010182;28;20808;-51
2023/06/01 03:25:39;;;;;;;2.75;2.20;;;;;;;;;;5014768;28;20196;-51
2023/06/01 03:28:05;;;;;;;3.80;2.53;;;;;;;;;;5013235;28;20188;-52
2023/06/01 03:30:31;;;;;;;3.20;1.88;;;;;;;;;;5013902;28;20231;-52
2023/06/01 03:32:57;;;;;;;2.20;1.58;;;;;;;;;;5015889;28;20235;-51
2023/06/01 03:35:23;;;;;;;2.42;1.70;;;;;;;;;;5014031;28;20205;-51
2023/06/01 03:37:49;;;;;;;4.30;2.42;;;;;;;;;;5016293;28;20188;-53
2023/06/01 03:40:15;;;;;;;6.25;2.10;;;;;;;;;;5012737;28;20188;-52
2023/06/01 03:42:42;;;;;;;6.43;2.10;;;;;;;;;;5014136;28;20242;-52
2023/06/01 03:45:08;;;;;;;4.05;2.40;;;;;;;;;;5011888;28;20184;-51
2023/06/01 03:47:35;;;;;;;8.23;2.00;;;;;;;;;;5013099;28;20251;-51
2023/06/01 03:50:01;;;;;;;3.08;1.52;;;;;;;;;;5014978;28;20184;-51
2023/06/01 03:52:27;;;;;;;4.50;2.03;;;;;;;;;;5015681;28;20622;-51
2023/06/01 03:54:54;;;;;;;5.18;1.90;;;;;;;;;;5015719;28;20188;-51
2023/06/01 03:57:20;;;;;;;4.15;1.83;;;;;;;;;;5013197;28;20315;-51
2023/06/01 03:59:46;;;;;;;4.18;2.13;;;;;;;;;;5014988;28;20259;-51
2023/06/01 04:02:12;;;;;;;3.20;2.10;;;;;;;;;;5013899;28;20713;-53
2023/06/01 04:04:40;;;;;;;4.38;2.30;;;;;;;;;;5016025;28;20184;-50
2023/06/01 04:07:06;;;;;;;4.13;2.13;;;;;;;;;;5006394;28;20200;-51
2023/06/01 04:09:32;;;;;;;4.75;1.98;;;;;;;;;;5016132;28;20207;-51
2023/06/01 04:11:58;;;;;;;6.90;2.20;;;;;;;;;;5008053;28;20181;-53
2023/06/01 04:14:24;;;;;;;5.07;2.58;;;;;;;;;;5014431;28;20247;-51
2023/06/01 04:16:50;;;;;;;8.13;2.47;;;;;;;;;;5015160;28;20185;-51
2023/06/01 04:19:16;;;;;;;3.85;2.13;;;;;;;;;;5012951;28;20199;-51
2023/06/01 04:21:43;;;;;;;3.58;2.30;;;;;;;;;;5014906;28;20208;-51
2023/06/01 04:24:09;;;;;;;3.78;2.53;;;;;;;;;;5015012;28;20424;-52
2023/06/01 04:26:35;;;;;;;4.55;2.60;;;;;;;;;;5014219;28;20188;-51
2023/06/01 04:29:02;;;;;;;5.05;2.17;;;;;;;;;;5015904;28;20568;-51
2023/06/01 04:31:29;;;;;;;2.90;2.33;;;;;;;;;;5012311;28;20192;-51
2023/06/01 04:33:56;;;;;;;2.70;2.20;;;;;;;;;;5015628;28;20195;-51
2023/06/01 04:36:22;;;;;;;3.17;1.98;;;;;;;;;;5014722;28;20268;-51
2023/06/01 04:38:53;;;;;;;4.93;2.15;;;;;;;;;;5015304;28;20482;-51
2023/06/01 04:41:23;;;;;;;3.20;2.00;;;;;;;;;;5012102;28;20201;-51
2023/06/01 04:43:52;;;;;;;3.30;2.03;;;;;;;;;;5015231;28;20611;-51
2023/06/01 04:46:23;;;;;;;3.58;2.20;;;;;;;;;;5015460;28;20200;-51
2023/06/01 04:48:51;;;;;;;5.18;2.40;;;;;;;;;;5007558;28;20544;-52
2023/06/01 04:51:19;;;;;;;5.10;2.00;;;;;;;;;;5016069;28;20219;-51
2023/06/01 04:53:45;;;;;;;8.55;2.35;;;;;;;;;;5014981;28;20568;-51
2023/06/01 04:56:11;;;;;;;4.93;2.42;;;;;;;;;;5015103;28;20678;-51
2023/06/01 04:58:37;;;;;;;4.03;1.88;;;;;;;;;;5015219;28;20180;-51
2023/06/01 05:01:03;;;;;;;2.17;1.92;;;;;;;;;;5009053;28;20180;-51
2023/06/01 05:03:28;;;;;;;3.38;1.90;;;;;;;;;;5013776;28;20235;-51
2023/06/01 05:05:55;;;;;;;4.18;1.90;;;;;;;;;;5005440;28;20193;-52
2023/06/01 05:08:22;;;;;;;5.47;2.55;;;;;;;;;;5014439;28;20263;-51
2023/06/01 05:10:48;;;;;;;3.20;2.17;;;;;;;;;;5009980;28;20188;-52
2023/06/01 05:13:14;;;;;;;2.58;2.05;;;;;;;;;;5012203;28;20188;-52
2023/06/01 05:15:40;;;;;;;3.30;2.00;;;;;;;;;;5010437;28;20220;-51
2023/06/01 05:18:06;;;;;;;2.90;2.00;;;;;;;;;;5013557;28;20180;-51
2023/06/01 05:20:31;;;;;;;4.55;1.83;;;;;;;;;;5011645;28;20192;-51
2023/06/01 05:22:57;;;;;;;3.80;2.17;;;;;;;;;;5008385;28;20188;-52
2023/06/01 05:25:23;;;;;;;3.75;1.70;;;;;;;;;;5009935;28;20477;-51
2023/06/01 05:27:49;;;;;;;3.40;1.80;;;;;;;;;;5013417;28;20196;-51
2023/06/01 05:30:15;;;;;;;2.80;1.83;;;;;;;;;;5010461;28;20223;-51
2023/06/01 05:32:41;;;;;;;4.47;1.95;;;;;;;;;;5011698;28;20176;-51
2023/06/01 05:35:07;;;;;;;4.80;1.88;;;;;;;;;;5010158;28;20215;-51
2023/06/01 05:37:33;;;;;;;4.15;2.28;;;;;;;;;;5013994;28;20180;-51
2023/06/01 05:39:59;;;;;;;2.53;2.03;;;;;;;;;;5014846;28;20180;-51
2023/06/01 05:42:25;;;;;;;3.08;1.73;;;;;;;;;;5014229;28;20216;-51
2023/06/01 05:44:51;;;;;;;3.60;1.75;;;;;;;;;;5014656;28;20205;-51
2023/06/01 05:47:17;;;;;;;2.70;2.10;;;;;;;;;;5010033;28;20188;-51
2023/06/01 05:49:43;;;;;;;3.05;1.75;;;;;;;;;;5013352;28;20450;-51
2023/06/01 05:52:09;;;;;;;5.18;2.15;;;;;;;;;;5007215;28;20199;-51
2023/06/01 05:54:35;;;;;;;3.95;1.85;;;;;;;;;;5010470;28;20294;-51
2023/06/01 05:57:01;;;;;;;2.58;2.10;;;;;;;;;;5019329;28;20307;-50
2023/06/01 05:59:27;;;;;;;5.55;1.98;;;;;;;;;;5014229;28;20177;-51
2023/06/01 06:01:53;;;;;;;3.40;2.47;;;;;;;;;;5013559;28;20188;-51
2023/06/01 06:04:20;;;;;;;3.38;1.83;;;;;;;;;;5013854;28;20188;-51
2023/06/01 06:06:45;;;;;;;3.40;2.22;;;;;;;;;;5014439;28;20322;-51
2023/06/01 06:09:13;;;;;;;4.07;2.22;;;;;;;;;;5010651;28;20272;-51
2023/06/01 06:11:39;;;;;;;3.05;1.77;;;;;;;;;;5011063;28;20630;-51
2023/06/01 06:14:05;;;;;;;3.45;2.08;;;;;;;;;;5012690;28;20194;-50
2023/06/01 06:16:31;;;;;;;3.92;1.98;;;;;;;;;;5013405;28;20180;-51
2023/06/01 06:18:57;;;;;;;2.67;1.80;;;;;;;;;;5013041;28;20176;-52
2023/06/01 06:21:23;;;;;;;2.72;1.88;;;;;;;;;;5008842;28;20202;-51
2023/06/01 06:23:49;;;;;;;2.90;1.90;;;;;;;;;;5014728;28;20195;-51
2023/06/01 06:26:15;;;;;;;2.42;1.90;;;;;;;;;;5011480;28;20189;-50
2023/06/01 06:28:41;;;;;;;6.40;2.30;;;;;;;;;;5013963;28;20239;-52
2023/06/01 06:31:07;;;;;;;2.38;1.80;;;;;;;;;;5015650;28;20230;-51
2023/06/01 06:33:33;;;;;;;4.13;2.17;;;;;;;;;;5008647;28;20630;-51
2023/06/01 06:35:59;;;;;;;3.10;1.80;;;;;;;;;;5012751;28;20236;-51
2023/06/01 06:38:25;;;;;;;2.50;1.88;;;;;;;;;;5013346;28;20435;-50
2023/06/01 06:40:51;;;;;;;2.60;1.70;;;;;;;;;;5012686;28;20709;-50
2023/06/01 06:43:17;;;;;;;3.75;1.83;;;;;;;;;;5015936;28;20183;-51
2023/06/01 06:45:43;;;;;;;2.97;2.22;;;;;;;;;;5015732;28;20208;-50
2023/06/01 06:48:09;;;;;;;3.75;1.55;;;;;;;;;;5010623;28;20188;-51
2023/06/01 06:50:36;;;;;;;2.78;2.00;;;;;;;;;;5016616;28;20204;-51
2023/06/01 06:53:03;;;;;;;5.22;2.45;;;;;;;;;;5016029;28;20215;-51
2023/06/01 06:55:29;;;;;;;2.95;1.80;;;;;;;;;;5030910;28;20213;-52
2023/06/01 06:57:55;;;;;;;3.25;1.95;;;;;;;;;;5016725;28;20172;-50
2023/06/01 07:00:22;;;;;;;4.80;1.73;;;;;;;;;;5031530;28;20447;-51
2023/06/01 07:02:48;;;;;;;3.50;1.73;;;;;;;;;;5011853;28;20260;-50
2023/06/01 07:05:14;;;;;;;4.07;2.10;;;;;;;;;;5017032;28;20218;-51
2023/06/01 07:07:41;;;;;;;1.70;1.60;;;;;;;;;;5016804;28;20200;-51
2023/06/01 07:10:07;;;;;;;1.60;1.45;;;;;;;;;;5015693;28;20552;-51
2023/06/01 07:12:33;;;;;;;2.35;2.08;;;;;;;;;;5002306;28;20496;-51
2023/06/01 07:15:00;;;;;;;4.20;1.73;;;;;;;;;;5009300;28;20207;-51
2023/06/01 07:17:26;;;;;;;4.13;1.73;;;;;;;;;;5014279;28;20172;-51
2023/06/01 07:19:52;;;;;;;5.43;1.83;;;;;;;;;;5017226;28;20224;-51
2023/06/01 07:22:20;;;;;;;3.50;1.80;;;;;;;;;;5011259;28;20590;-52
2023/06/01 07:24:47;;;;;;;2.83;2.13;;;;;;;;;;5014540;28;20191;-51
2023/06/01 07:27:13;;;;;;;3.40;1.85;;;;;;;;;;5014780;28;20203;-52
2023/06/01 07:29:39;;;;;;;3.33;1.95;;;;;;;;;;5015116;28;20700;-51
2023/06/01 07:32:06;;;;;;;2.58;1.83;;;;;;;;;;5009797;28;20208;-50
2023/06/01 07:34:33;;;;;;;3.63;1.90;;;;;;;;;;5015258;28;20250;-50
2023/06/01 07:36:59;;;;;;;2.38;1.70;;;;;;;;;;5008956;28;20568;-51
2023/06/01 07:39:25;;;;;;;3.97;1.70;;;;;;;;;;5006038;28;20271;-51
2023/06/01 07:41:53;;;;;;;2.85;1.95;;;;;;;;;;5007303;28;20173;-50
2023/06/01 07:44:20;;;;;;;2.63;1.40;;;;;;;;;;5011047;28;20188;-52
2023/06/01 07:46:46;;;;;;;2.40;1.60;;;;;;;;;;5012457;28;20180;-51
2023/06/01 07:49:13;;;;;;;2.45;2.17;;;;;;;;;;5012936;28;20441;-51
2023/06/01 07:51:39;;;;;;;3.10;1.80;;;;;;;;;;5013526;28;20204;-52
2023/06/01 07:54:05;;;;;;;6.50;2.20;;;;;;;;;;5015230;28;20195;-51
2023/06/01 07:56:31;;;;;;;2.75;1.80;;;;;;;;;;5022315;28;20179;-51
2023/06/01 07:58:57;;;;;;;2.75;1.70;;;;;;;;;;5013542;28;20179;-51
2023/06/01 08:01:23;;;;;;;2.10;1.50;;;;;;;;;;5007244;28;20451;-51
2023/06/01 08:09:58;;;;;;;4.18;1.90;;;;;;;;;;5009489;28;20210;-50
2023/06/01 08:12:25;;;;;;;3.47;1.98;;;;;;;;;;5007674;28;20187;-51
2023/06/01 08:14:51;;;;;;;3.70;2.15;;;;;;;;;;5012943;28;20208;-51
2023/06/01 08:17:18;;;;;;;3.95;1.95;;;;;;;;;;5015072;28;20571;-51
2023/06/01 08:19:45;;;;;;;2.60;1.77;;;;;;;;;;5010305;28;20184;-51
2023/06/01 08:22:11;;;;;;;8.60;2.53;;;;;;;;;;5001852;28;20463;-50
2023/06/01 08:24:37;;;;;;;8.43;2.10;;;;;;;;;;5012705;28;20262;-51
2023/06/01 08:27:16;;;;;;;6.68;2.10;;;;;;;;;;5011450;28;20436;-51
2023/06/01 08:29:42;;;;;;;3.00;1.80;;;;;;;;;;5014539;28;20255;-51
2023/06/01 08:32:08;;;;;;;3.88;1.77;;;;;;;;;;5007667;28;20259;-51
2023/06/01 08:34:34;;;;;;;3.13;1.90;;;;;;;;;;5011471;28;20521;-51
2023/06/01 08:37:00;;;;;;;3.33;1.60;;;;;;;;;;5018656;28;20180;-52
2023/06/01 08:39:25;;;;;;;2.90;1.90;;;;;;;;;;5017330;28;20184;-50
2023/06/01 08:42:02;;;;;;;4.25;2.00;;;;;;;;;;5013179;28;20538;-51
2023/06/01 08:44:28;;;;;;;6.28;1.80;;;;;;;;;;5009004;28;20192;-50
2023/06/01 08:46:55;;;;;;;3.40;1.80;;;;;;;;;;5007055;28;20184;-51
2023/06/01 08:58:32;;;;;;;3.05;1.77;;;;;;;;;;4990071;28;20222;-51
2023/06/01 09:04:02;;;;;;;2.65;1.50;;;;;;;;;;4999654;28;20171;-51
2023/06/01 09:06:28;;;;;;;3.97;1.58;;;;;;;;;;5014235;28;20197;-50
2023/06/01 09:08:54;;;;;;;4.53;1.58;;;;;;;;;;5019389;28;20258;-50
2023/06/01 09:11:20;;;;;;;6.25;1.73;;;;;;;;;;5004155;28;20806;-51
2023/06/01 09:13:46;;;;;;;5.10;1.70;;;;;;;;;;5005254;28;20180;-51
2023/06/01 09:16:12;;;;;;;1.95;1.58;;;;;;;;;;5010168;28;20212;-50
2023/06/01 09:18:51;;;;;;;3.22;1.70;;;;;;;;;;5011951;28;20187;-50
2023/06/01 09:21:17;;;;;;;4.22;1.80;;;;;;;;;;5008160;28;20187;-51
2023/06/01 09:23:43;;;;;;;3.40;1.92;;;;;;;;;;5009283;28;20425;-50
2023/06/01 09:26:10;;;;;;;2.65;1.63;;;;;;;;;;5009098;28;20195;-51
2023/06/01 09:28:54;;;;;;;3.40;1.90;;;;;;;;;;5013181;28;20207;-50
2023/06/01 09:31:36;;;;;;;3.20;1.52;;;;;;;;;;5009904;28;20483;-51
2023/06/01 09:34:03;;;;;;;2.33;1.30;;;;;;;;;;5013896;28;20235;-50
2023/06/01 09:36:29;;;;;;;2.75;1.60;;;;;;;;;;5030053;28;20229;-50
2023/06/01 09:39:02;;;;;;;5.20;1.55;;;;;;;;;;5014159;28;20188;-51
2023/06/01 09:41:31;;;;;;;2.83;1.88;;;;;;;;;;5013573;28;20184;-50
2023/06/01 09:43:57;;;;;;;2.67;1.40;;;;;;;;;;5010934;28;20177;-51
2023/06/01 09:46:23;;;;;;;2.47;1.60;;;;;;;;;;5008397;28;20181;-51
2023/06/01 09:48:50;;;;;;;5.63;1.63;;;;;;;;;;5012811;28;20180;-51
2023/06/01 09:51:26;;;;;;;2.58;1.65;;;;;;;;;;5012439;28;20172;-50
2023/06/01 09:53:52;;;;;;;2.28;1.58;;;;;;;;;;5012022;28;20175;-50
2023/06/01 09:56:18;;;;;;;4.10;1.90;;;;;;;;;;5013924;28;20212;-51
2023/06/01 09:58:44;;;;;;;2.63;1.25;;;;;;;;;;5012967;28;20187;-50
2023/06/01 10:01:11;;;;;;;4.78;1.60;;;;;;;;;;5011958;28;20185;-50
2023/06/01 10:03:41;;;;;;;3.17;1.58;;;;;;;;;;5016089;28;20200;-50
2023/06/01 10:06:08;;;;;;;1.90;1.60;;;;;;;;;;5010365;28;20578;-50
2023/06/01 10:08:34;;;;;;;4.45;1.58;;;;;;;;;;5012021;28;20329;-50
2023/06/01 10:11:00;;;;;;;3.05;1.77;;;;;;;;;;5002188;28;20189;-50
2023/06/01 10:13:26;;;;;;;1.60;1.38;;;;;;;;;;5015870;28;20185;-50
2023/06/01 10:15:55;;;;;;;3.28;1.73;;;;;;;;;;5011161;28;20212;-51
2023/06/01 10:18:21;;;;;;;2.20;1.30;;;;;;;;;;5005566;28;20264;-51
2023/06/01 10:20:47;;;;;;;6.68;1.52;;;;;;;;;;5009607;28;20268;-50
2023/06/01 10:23:13;;;;;;;7.55;1.75;;;;;;;;;;5014729;28;20192;-50
2023/06/01 10:25:43;;;;;;;3.33;1.67;;;;;;;;;;5010880;28;20188;-52
2023/06/01 10:28:10;;;;;;;7.03;1.80;;;;;;;;;;5010905;28;20324;-50
2023/06/01 10:30:36;;;;;;;2.00;1.80;;;;;;;;;;5010196;28;20196;-50
2023/06/01 10:33:02;;;;;;;3.78;1.90;;;;;;;;;;5011145;28;20184;-51
2023/06/01 10:35:28;;;;;;;3.38;1.85;;;;;;;;;;5012797;28;20298;-51
2023/06/01 10:38:06;;;;;;;3.20;1.52;;;;;;;;;;5013552;28;20263;-50
2023/06/01 10:40:36;;;;;;;5.85;1.55;;;;;;;;;;5011596;28;20188;-51
2023/06/01 10:43:02;;;;;;;2.13;1.48;;;;;;;;;;5008327;28;20230;-50
2023/06/01 10:45:39;;;;;;;3.17;1.80;;;;;;;;;;5011533;28;20192;-51
2023/06/01 10:48:06;;;;;;;3.28;1.63;;;;;;;;;;5012530;28;20259;-51
2023/06/01 10:50:35;;;;;;;2.83;1.45;;;;;;;;;;5011829;28;20295;-51
2023/06/01 10:53:20;;;;;;;3.47;1.50;;;;;;;;;;5012802;28;20563;-52
2023/06/01 10:55:46;;;;;;;5.03;1.67;;;;;;;;;;5010668;28;20219;-52
2023/06/01 10:58:22;;;;;;;3.13;1.45;;;;;;;;;;5013519;28;20259;-50
2023/06/01 11:00:49;;;;;;;2.97;1.45;;;;;;;;;;5012223;28;20186;-51
2023/06/01 11:03:15;;;;;;;2.17;1.75;;;;;;;;;;5010403;28;20185;-50
2023/06/01 11:05:51;;;;;;;4.85;1.60;;;;;;;;;;5012531;28;20181;-50
2023/06/01 11:08:20;;;;;;;3.17;1.50;;;;;;;;;;5009349;28;20192;-50
2023/06/01 11:10:58;;;;;;;2.50;1.55;;;;;;;;;;5016088;28;20180;-50
2023/06/01 11:13:29;;;;;;;3.88;1.30;;;;;;;;;;5006321;28;20176;-50
2023/06/01 11:16:21;;;;;;;2.22;1.70;;;;;;;;;;5014114;28;20200;-50
2023/06/01 11:18:58;;;;;;;4.03;1.60;;;;;;;;;;5011126;28;20502;-51
2023/06/01 11:21:24;;;;;;;1.95;1.52;;;;;;;;;;5008893;28;20220;-50
2023/06/01 11:23:51;;;;;;;3.13;1.70;;;;;;;;;;5016884;28;20188;-51
2023/06/01 11:26:18;;;;;;;1.58;1.42;;;;;;;;;;5015693;28;20209;-50
2023/06/01 11:28:46;;;;;;;2.13;1.52;;;;;;;;;;5013466;28;20196;-50
2023/06/01 11:31:13;;;;;;;3.83;1.40;;;;;;;;;;5013609;28;20188;-50
2023/06/01 11:33:40;;;;;;;1.50;1.40;;;;;;;;;;5015972;28;20199;-50
2023/06/01 11:36:07;;;;;;;1.52;1.42;;;;;;;;;;5015850;28;20211;-50
2023/06/01 11:38:38;;;;;;;5.93;1.45;;;;;;;;;;5009495;28;20208;-50
2023/06/01 11:41:04;;;;;;;1.77;1.27;;;;;;;;;;5028972;28;20227;-51
2023/06/01 11:43:31;;;;;;;2.35;1.40;;;;;;;;;;5016869;28;20187;-51
2023/06/01 11:46:03;;;;;;;3.85;1.63;;;;;;;;;;5013671;28;20195;-50
2023/06/01 11:48:29;;;;;;;4.05;1.67;;;;;;;;;;5016150;28;20267;-50
2023/06/01 11:50:55;;;;;;;3.50;1.60;;;;;;;;;;5010490;28;20224;-50
2023/06/01 11:53:22;;;;;;;2.17;1.73;;;;;;;;;;5016567;28;20176;-51
2023/06/01 11:55:49;;;;;;;2.47;1.60;;;;;;;;;;5016227;28;20501;-51
2023/06/01 11:58:20;;;;;;;4.07;1.65;;;;;;;;;;5015813;28;20458;-50
2023/06/01 12:00:46;;;;;;;1.35;1.20;;;;;;;;;;5015311;28;20184;-51
2023/06/01 12:03:12;;;;;;;2.47;1.70;;;;;;;;;;5018046;28;20502;-51
2023/06/01 12:05:40;;;;;;;2.58;1.55;;;;;;;;;;5011206;28;20192;-52
2023/06/01 12:08:06;;;;;;;3.25;1.85;;;;;;;;;;5016153;28;20347;-51
2023/06/01 12:10:32;;;;;;;2.30;1.40;;;;;;;;;;5015229;28;20332;-51
2023/06/01 12:12:58;;;;;;;1.63;1.48;;;;;;;;;;5018609;28;20194;-51
2023/06/01 12:15:24;;;;;;;2.42;1.60;;;;;;;;;;5014236;28;20485;-51
2023/06/01 12:17:51;;;;;;;5.13;1.63;;;;;;;;;;5013498;28;20199;-51
2023/06/01 12:20:36;;;;;;;1.50;1.40;;;;;;;;;;5008822;28;20301;-51
2023/06/01 12:23:03;;;;;;;6.28;1.58;;;;;;;;;;5031498;28;20241;-51
2023/06/01 12:25:32;;;;;;;3.15;1.48;;;;;;;;;;5015968;28;20187;-51
2023/06/01 12:28:05;;;;;;;4.38;1.60;;;;;;;;;;5015928;28;20694;-51
2023/06/01 12:30:31;;;;;;;1.20;1.10;;;;;;;;;;5015228;28;20177;-50
2023/06/01 12:32:57;;;;;;;2.72;1.50;;;;;;;;;;5014147;28;20187;-50
2023/06/01 12:35:23;;;;;;;3.08;1.63;;;;;;;;;;5022517;28;20208;-51
2023/06/01 12:38:09;;;;;;;2.67;1.30;;;;;;;;;;5015311;28;20200;-50
2023/06/01 12:40:35;;;;;;;2.45;1.50;;;;;;;;;;5011229;28;20176;-51
2023/06/01 12:43:01;;;;;;;1.60;1.30;;;;;;;;;;5014235;28;20568;-51
2023/06/01 12:45:37;;;;;;;3.38;1.65;;;;;;;;;;5007723;28;20549;-51
2023/06/01 12:48:03;;;;;;;5.13;1.63;;;;;;;;;;5010635;28;20187;-51
2023/06/01 12:50:29;;;;;;;2.95;1.60;;;;;;;;;;5029751;28;20207;-51
2023/06/01 12:52:55;;;;;;;2.88;1.42;;;;;;;;;;5013521;28;20199;-51
2023/06/01 12:55:21;;;;;;;4.43;1.63;;;;;;;;;;5014938;28;20216;-51
2023/06/01 12:57:54;;;;;;;2.22;1.25;;;;;;;;;;5008971;28;20453;-51
2023/06/01 13:00:20;;;;;;;1.20;0.90;;;;;;;;;;5007576;28;20726;-51
2023/06/01 13:02:50;;;;;;;2.08;1.30;;;;;;;;;;5014718;28;20263;-51
2023/06/01 13:05:17;;;;;;;3.40;1.40;;;;;;;;;;5013713;28;20218;-51
2023/06/01 13:07:43;;;;;;;1.42;1.33;;;;;;;;;;5014021;28;20181;-51
2023/06/01 13:10:09;;;;;;;2.40;1.30;;;;;;;;;;5014250;28;20580;-52
2023/06/01 13:12:35;;;;;;;1.30;1.20;;;;;;;;;;5014508;28;20181;-51
2023/06/01 13:15:02;;;;;;;2.33;1.20;;;;;;;;;;5015147;28;20351;-51
2023/06/01 13:17:28;;;;;;;2.17;1.20;;;;;;;;;;5013272;28;20180;-51
2023/06/01 13:19:55;;;;;;;3.05;1.48;;;;;;;;;;5013792;28;20184;-51
2023/06/01 13:22:21;;;;;;;2.28;1.20;;;;;;;;;;5013948;28;20219;-51
2023/06/01 13:24:47;;;;;;;2.95;1.40;;;;;;;;;;5014023;28;20176;-51
2023/06/01 13:27:13;;;;;;;1.85;1.35;;;;;;;;;;5012883;28;20208;-51
2023/06/01 13:29:39;;;;;;;3.30;1.85;;;;;;;;;;5013942;28;20185;-51
2023/06/01 13:32:05;;;;;;;1.88;1.25;;;;;;;;;;5012163;28;20529;-51
2023/06/01 13:34:33;;;;;;;1.85;1.42;;;;;;;;;;5009178;28;20224;-51
2023/06/01 13:36:59;;;;;;;1.17;1.05;;;;;;;;;;5012640;28;20203;-51
2023/06/01 13:39:25;;;;;;;1.90;1.42;;;;;;;;;;5013318;28;20533;-50
2023/06/01 13:41:51;;;;;;;11.15;1.90;;;;;;;;;;5013867;28;20200;-50
2023/06/01 13:44:17;;;;;;;6.22;1.65;;;;;;;;;;5009987;28;20180;-50
2023/06/01 13:46:43;;;;;;;5.60;2.05;;;;;;;;;;5013649;28;20439;-50
2023/06/01 13:49:09;;;;;;;3.60;1.35;;;;;;;;;;5009051;28;20247;-52
2023/06/01 13:51:37;;;;;;;12.05;1.67;;;;;;;;;;5014049;28;20187;-51
2023/06/01 13:54:03;;;;;;;6.07;1.60;;;;;;;;;;5019313;28;20172;-50
2023/06/01 13:56:29;;;;;;;6.38;1.80;;;;;;;;;;5013853;28;20490;-50
2023/06/01 13:58:55;;;;;;;5.00;1.70;;;;;;;;;;5006656;28;20181;-52
2023/06/01 14:01:21;;;;;;;3.05;1.50;;;;;;;;;;5009871;28;20187;-50
2023/06/01 14:03:47;;;;;;;2.88;1.50;;;;;;;;;;5011021;28;20195;-50
2023/06/01 14:06:14;;;;;;;4.88;1.55;;;;;;;;;;5006646;28;20185;-50
2023/06/01 14:08:40;;;;;;;1.80;1.25;;;;;;;;;;5012149;28;20176;-50
2023/06/01 14:11:06;;;;;;;2.90;1.50;;;;;;;;;;5006556;28;20785;-50
2023/06/01 14:13:32;;;;;;;2.03;1.33;;;;;;;;;;5013556;28;20231;-50
2023/06/01 14:15:58;;;;;;;2.20;1.60;;;;;;;;;;5012220;28;20208;-52
2023/06/01 14:18:24;;;;;;;2.22;1.42;;;;;;;;;;5012613;28;20180;-50
2023/06/01 14:20:50;;;;;;;1.80;1.60;;;;;;;;;;5010179;28;20649;-50
2023/06/01 14:23:16;;;;;;;1.92;1.70;;;;;;;;;;5018095;28;20179;-51
2023/06/01 14:25:42;;;;;;;4.53;1.40;;;;;;;;;;5007706;28;20177;-51
2023/06/01 14:28:08;;;;;;;1.60;1.42;;;;;;;;;;5009864;28;20297;-50
2023/06/01 14:30:34;;;;;;;3.90;1.58;;;;;;;;;;5013135;28;20192;-50
2023/06/01 14:33:06;;;;;;;2.22;1.17;;;;;;;;;;5015334;28;20180;-50
2023/06/01 14:35:35;;;;;;;5.45;1.45;;;;;;;;;;5000303;28;20200;-50
2023/06/01 14:38:01;;;;;;;3.22;1.50;;;;;;;;;;5007336;28;20165;-49
2023/06/01 14:40:27;;;;;;;5.68;1.70;;;;;;;;;;5013645;28;20180;-52
2023/06/01 14:42:53;;;;;;;2.53;1.80;;;;;;;;;;5007702;28;20189;-52
2023/06/01 14:45:21;;;;;;;3.72;1.48;;;;;;;;;;5016774;28;20196;-51
2023/06/01 14:47:47;;;;;;;2.30;1.75;;;;;;;;;;5016127;28;20234;-50
2023/06/01 14:50:13;;;;;;;3.45;1.65;;;;;;;;;;5016348;28;20193;-51
2023/06/01 14:52:39;;;;;;;2.28;1.50;;;;;;;;;;5016452;28;20263;-50
2023/06/01 14:55:05;;;;;;;6.28;2.30;;;;;;;;;;5016937;28;20235;-50
2023/06/01 14:57:31;;;;;;;4.32;2.45;;;;;;;;;;5014439;28;20185;-50
2023/06/01 14:59:57;;;;;;;9.50;2.65;;;;;;;;;;5012957;28;20234;-50
2023/06/01 15:02:23;;;;;;;2.60;2.10;;;;;;;;;;5015655;28;20184;-50